EDT,Max TemperatureF,Mean TemperatureF,Min TemperatureF,Max Dew PointF,MeanDew PointF,Min DewpointF,Max Humidity, Mean Humidity, Min Humidity, Max Sea Level PressureIn, Mean Sea Level PressureIn, Min Sea Level PressureIn, Max VisibilityMiles, Mean VisibilityMiles, Min VisibilityMiles, Max Wind SpeedMPH, Mean Wind SpeedMPH, Max Gust SpeedMPH,PrecipitationIn, CloudCover, Events, WindDirDegrees
2013-9-1,84,75,65,71,68,66,100,83,65,29.85,29.81,29.76,10,6,1,10,5,15,0.01,6,Fog-Rain,147
2013-9-2,82,72,61,70,66,60,93,78,62,29.87,29.80,29.75,10,8,2,17,7,23,T,5,Fog-Rain-Thunderstorm,255
2013-9-3,65,60,54,61,56,54,93,83,72,30.05,29.96,29.86,10,10,7,15,6,20,T,7,Rain,293
2013-9-4,77,65,52,58,54,51,100,73,46,30.12,30.08,30.05,10,9,4,15,6,20,0.00,1,,240
2013-9-5,71,60,49,60,51,44,93,67,40,30.24,30.15,30.05,10,10,10,17,9,23,0.00,5,,332
2013-9-6,73,58,43,50,45,40,93,64,34,30.30,30.23,30.14,10,10,10,8,3,10,0.00,3,,105
2013-9-7,80,65,49,62,52,43,86,64,42,30.13,30.04,29.94,10,10,10,14,7,18,T,5,Rain,213
2013-9-8,75,63,51,66,60,49,93,73,53,30.09,30.00,29.91,10,8,2,15,7,20,T,7,,4
2013-9-9,79,65,50,70,60,48,97,85,73,30.10,30.06,30.01,10,8,4,14,7,18,T,6,Rain-Thunderstorm,137
2013-9-10,91,81,70,73,70,67,97,75,52,30.10,30.05,30.01,10,7,4,16,9,22,T,2,,210
2013-9-11,90,82,73,73,71,68,93,72,50,30.12,30.06,29.99,10,7,3,16,7,21,0.00,4,,216
2013-9-12,75,67,58,69,65,55,100,89,78,29.98,29.90,29.82,10,6,1,22,7,29,0.96,7,Rain-Thunderstorm,270
2013-9-13,63,56,49,58,52,44,100,78,55,30.06,29.93,29.85,10,8,1,22,9,28,0.11,7,Fog-Rain,321
2013-9-14,65,54,43,47,43,39,93,68,43,30.18,30.14,30.06,10,10,10,13,4,17,0.00,3,,349
2013-9-15,67,54,41,56,47,41,96,72,48,30.20,30.14,30.08,10,10,8,12,3,15,0.04,6,Rain,170
2013-9-16,69,57,45,55,53,46,100,79,57,30.34,30.21,30.11,10,8,0,22,8,29,0.01,5,Fog-Rain,349
2013-9-17,68,54,39,46,41,36,93,63,32,30.44,30.36,30.27,10,10,10,12,6,15,0.00,1,Fog,106
2013-9-18,73,59,44,55,48,39,83,65,46,30.26,30.19,30.11,10,10,10,13,7,16,0.00,5,,141
2013-9-19,73,66,59,63,60,56,97,83,68,30.14,30.10,30.02,10,5,1,10,5,14,T,7,Fog-Rain,172
2013-9-20,77,69,60,68,65,58,100,90,79,30.04,29.94,29.79,7,3,0,15,8,18,T,7,Fog-Rain,163
2013-9-21,70,61,51,68,60,52,100,87,73,29.81,29.74,29.67,10,5,0,18,6,25,1.07,7,Fog-Rain-Thunderstorm,230
2013-9-22,60,55,50,55,48,42,93,73,53,30.05,29.94,29.82,10,9,3,17,8,22,0.01,8,Rain,325
2013-9-23,58,49,40,48,44,40,93,75,57,30.18,30.13,30.05,10,10,9,8,4,13,0.00,7,,32
2013-9-24,68,51,34,51,44,35,100,73,45,30.16,30.09,30.00,10,9,7,9,4,14,0.00,0,Fog,58
2013-9-25,74,58,42,52,47,41,100,71,41,30.01,29.97,29.92,10,10,9,10,6,14,0.00,4,Fog,64
2013-9-26,73,58,43,52,47,40,93,61,29,30.12,30.05,29.97,10,10,10,13,6,17,0.00,3,,42
2013-9-27,72,60,48,54,50,47,96,70,44,30.22,30.18,30.12,10,10,8,14,7,17,0.00,1,,59
2013-9-28,73,60,47,55,51,47,100,75,49,30.27,30.21,30.14,10,10,7,14,8,18,0.00,1,,119
2013-9-29,71,61,51,59,53,47,90,76,61,30.14,30.07,30.01,10,10,9,12,6,17,0.00,6,,152
2013-9-30,67,61,54,58,57,54,100,87,73,30.04,30.02,29.99,10,8,5,15,6,18,0.00,7,Fog,188